Time;durP1;ratioP1;P1;durP2;ratioP2;P2;SDS_P1;SDS_P2;PMS_P1;PMS_P2;Temp;Humidity;BMP_temperature;BMP_pressure;BME280_temperature;BME280_humidity;BME280_pressure;Samples;Min_cycle;Max_cycle;Signal;HPM_P1;HPM_P2
2022/09/16 00:00:08;;;;;;;2.47;0.70;;;16.90;93.60;;;;;;5070806;28;20016;-81
2022/09/16 00:02:33;;;;;;;0.73;0.60;;;16.90;93.60;;;;;;5035755;28;20372;-80
2022/09/16 00:04:59;;;;;;;1.47;0.70;;;16.90;93.60;;;;;;5058400;28;20028;-82
2022/09/16 00:07:24;;;;;;;1.27;0.70;;;16.80;93.50;;;;;;5066885;28;20136;-81
2022/09/16 00:09:50;;;;;;;1.45;0.60;;;16.80;93.50;;;;;;5077870;28;20046;-81
2022/09/16 00:12:15;;;;;;;2.23;0.60;;;16.70;93.40;;;;;;5043256;28;20600;-81
2022/09/16 00:14:41;;;;;;;1.38;0.70;;;16.70;93.30;;;;;;5062254;28;20159;-81
2022/09/16 00:17:07;;;;;;;1.37;0.60;;;16.60;93.30;;;;;;5073789;28;20016;-81
2022/09/16 00:19:32;;;;;;;2.35;0.70;;;16.60;93.30;;;;;;5048931;28;20308;-81
2022/09/16 00:21:58;;;;;;;2.00;0.60;;;16.50;93.30;;;;;;5073142;27;20115;-81
2022/09/16 00:24:24;;;;;;;2.07;0.73;;;16.50;93.20;;;;;;5065430;28;20024;-81
2022/09/16 00:26:49;;;;;;;2.35;0.70;;;16.40;93.30;;;;;;5065317;28;20036;-81
2022/09/16 00:29:15;;;;;;;1.33;0.57;;;16.40;93.30;;;;;;5065122;28;20159;-81
2022/09/16 00:31:40;;;;;;;2.90;0.90;;;16.30;93.30;;;;;;5072607;28;20110;-81
2022/09/16 00:34:06;;;;;;;2.83;0.70;;;16.30;93.30;;;;;;5043941;28;20117;-81
2022/09/16 00:36:32;;;;;;;1.80;0.57;;;16.20;93.30;;;;;;5069299;28;20282;-81
2022/09/16 00:38:57;;;;;;;3.72;0.80;;;16.20;93.30;;;;;;5060997;28;20063;-81
2022/09/16 00:41:27;;;;;;;1.47;0.70;;;16.20;93.30;;;;;;5076248;28;20541;-81
2022/09/16 00:43:58;;;;;;;2.55;0.60;;;16.10;93.20;;;;;;5049114;28;20602;-81
2022/09/16 00:46:43;;;;;;;1.95;0.75;;;16.10;93.20;;;;;;5083292;28;20020;-81
2022/09/16 00:49:17;;;;;;;2.50;0.70;;;16.00;92.60;;;;;;5054866;28;20086;-81
2022/09/16 00:51:46;;;;;;;1.77;0.70;;;16.00;93.30;;;;;;5058988;28;20484;-81
2022/09/16 00:54:14;;;;;;;3.90;0.70;;;15.90;93.40;;;;;;5063336;28;20012;-81
2022/09/16 00:56:43;;;;;;;0.90;0.50;;;15.90;93.40;;;;;;5032736;28;20136;-81
2022/09/16 00:59:25;;;;;;;1.73;0.70;;;15.80;93.30;;;;;;5074152;28;20016;-81
2022/09/16 01:01:53;;;;;;;2.63;0.80;;;15.80;92.90;;;;;;5056266;28;20224;-82
2022/09/16 01:04:25;;;;;;;1.58;0.70;;;15.70;93.50;;;;;;5068855;28;20032;-81
2022/09/16 01:06:52;;;;;;;1.57;0.60;;;15.60;93.20;;;;;;5059692;28;20012;-81
2022/09/16 01:09:21;;;;;;;1.95;0.57;;;15.60;93.50;;;;;;5060740;28;20270;-81
2022/09/16 01:11:47;;;;;;;2.25;0.70;;;15.60;93.40;;;;;;5057517;28;20012;-81
2022/09/16 01:17:22;;;;;;;1.25;0.50;;;15.50;93.70;;;;;;5054488;28;20461;-82
2022/09/16 01:20:15;;;;;;;2.37;0.70;;;15.50;93.60;;;;;;5051460;28;20783;-82
2022/09/16 01:23:09;;;;;;;2.42;0.70;;;15.50;93.50;;;;;;5058985;28;20171;-81
2022/09/16 01:25:43;;;;;;;0.90;0.55;;;15.50;93.50;;;;;;5054662;28;20027;-81
2022/09/16 01:28:26;;;;;;;1.02;0.60;;;15.50;93.80;;;;;;5055897;28;20480;-82
2022/09/16 01:31:01;;;;;;;1.65;0.65;;;15.50;93.90;;;;;;5079987;28;20492;-81
2022/09/16 01:34:02;;;;;;;1.33;0.70;;;15.50;94.20;;;;;;5067699;28;20076;-81
2022/09/16 01:36:33;;;;;;;0.93;0.70;;;15.40;93.60;;;;;;5055228;28;20025;-81
2022/09/16 01:39:10;;;;;;;1.90;0.55;;;15.50;94.10;;;;;;5069469;28;20043;-81
2022/09/16 01:41:55;;;;;;;1.95;0.70;;;15.40;93.90;;;;;;5076423;28;20067;-81
2022/09/16 01:44:28;;;;;;;0.90;0.70;;;15.40;93.60;;;;;;5058003;28;20094;-82
2022/09/16 01:47:01;;;;;;;1.90;0.70;;;15.50;94.10;;;;;;5057676;28;20163;-81
2022/09/16 01:49:52;;;;;;;1.70;0.70;;;15.40;93.80;;;;;;5058750;28;20024;-81
2022/09/16 01:52:34;;;;;;;1.08;0.73;;;15.40;94.00;;;;;;5074919;28;20059;-81
2022/09/16 01:55:04;;;;;;;1.25;0.70;;;15.40;93.80;;;;;;5059263;28;20157;-80
2022/09/16 01:57:51;;;;;;;1.48;0.70;;;15.40;94.60;;;;;;5078363;28;20192;-80
2022/09/16 02:00:17;;;;;;;3.33;0.90;;;15.40;94.60;;;;;;5072449;28;20403;-81
2022/09/16 02:03:04;;;;;;;2.40;0.90;;;15.40;94.90;;;;;;5058198;28;20228;-80
2022/09/16 02:05:50;;;;;;;2.05;0.70;;;15.50;95.00;;;;;;5066405;28;20118;-80
2022/09/16 02:08:26;;;;;;;2.75;0.90;;;15.50;94.30;;;;;;5050730;28;20066;-81
2022/09/16 02:11:02;;;;;;;1.42;0.80;;;15.50;94.60;;;;;;5069531;28;20056;-80
2022/09/16 02:13:59;;;;;;;0.90;0.70;;;15.60;94.70;;;;;;5068283;28;20082;-80
2022/09/16 02:16:39;;;;;;;1.88;0.75;;;15.60;93.90;;;;;;5065307;28;20047;-80
2022/09/16 02:19:10;;;;;;;0.88;0.70;;;15.70;94.60;;;;;;5067221;28;20189;-80
2022/09/16 02:21:39;;;;;;;1.85;0.70;;;15.70;95.00;;;;;;5051079;28;20084;-81
2022/09/16 02:24:12;;;;;;;1.65;0.80;;;15.70;95.10;;;;;;5065389;28;20024;-80
2022/09/16 02:26:41;;;;;;;2.07;0.80;;;15.80;95.00;;;;;;5068874;27;20029;-80
2022/09/16 02:29:13;;;;;;;0.60;0.60;;;15.80;95.10;;;;;;5085549;28;20520;-81
2022/09/16 02:31:42;;;;;;;0.80;0.70;;;15.80;95.00;;;;;;5058069;28;20055;-81
2022/09/16 02:34:15;;;;;;;2.13;0.82;;;15.90;95.10;;;;;;5077091;28;20019;-80
2022/09/16 02:36:44;;;;;;;1.08;0.60;;;15.80;94.60;;;;;;5054095;28;20020;-80
2022/09/16 02:39:17;;;;;;;2.77;0.80;;;15.90;94.80;;;;;;5058068;28;20016;-79
2022/09/16 02:41:43;;;;;;;1.17;0.75;;;15.80;94.50;;;;;;5062459;28;20028;-80
2022/09/16 02:44:10;;;;;;;2.33;0.60;;;15.90;94.70;;;;;;5057086;28;20021;-80
2022/09/16 02:46:54;;;;;;;2.10;0.70;;;15.80;94.50;;;;;;5060196;28;20255;-80
2022/09/16 02:49:40;;;;;;;0.83;0.70;;;15.80;94.10;;;;;;5055471;28;20024;-80
2022/09/16 02:52:09;;;;;;;1.38;0.75;;;15.70;93.60;;;;;;5038095;28;20028;-80
2022/09/16 02:54:49;;;;;;;1.55;0.63;;;15.70;94.50;;;;;;5051282;28;20036;-81
2022/09/16 02:57:15;;;;;;;0.98;0.63;;;15.70;94.80;;;;;;5062573;28;20024;-81
2022/09/16 02:59:41;;;;;;;1.63;0.70;;;15.60;94.80;;;;;;5050755;28;20022;-80
2022/09/16 03:02:07;;;;;;;2.28;0.70;;;15.60;95.00;;;;;;5052036;28;20493;-80
2022/09/16 03:04:34;;;;;;;1.92;0.80;;;15.60;95.10;;;;;;5051139;28;20024;-81
2022/09/16 03:07:02;;;;;;;2.47;0.80;;;15.60;95.20;;;;;;5041687;28;20878;-80
2022/09/16 03:09:28;;;;;;;2.17;0.70;;;15.60;95.30;;;;;;5059865;28;20035;-81
2022/09/16 03:12:06;;;;;;;2.78;0.60;;;15.70;95.50;;;;;;5059072;28;20294;-81
2022/09/16 03:15:09;;;;;;;2.25;0.80;;;15.70;95.40;;;;;;5052444;28;20031;-81
2022/09/16 03:18:05;;;;;;;1.77;0.70;;;15.70;94.90;;;;;;5061760;28;20049;-80
2022/09/16 03:20:44;;;;;;;2.28;0.50;;;15.70;95.00;;;;;;5054769;28;20021;-81
2022/09/16 03:23:46;;;;;;;1.20;0.53;;;15.70;95.40;;;;;;5057318;28;20028;-81
2022/09/16 03:26:21;;;;;;;2.83;0.70;;;15.80;94.90;;;;;;5032475;28;20567;-81
2022/09/16 03:29:11;;;;;;;3.03;0.90;;;15.80;95.50;;;;;;5067722;28;20204;-81
2022/09/16 03:32:16;;;;;;;2.00;0.70;;;15.80;95.50;;;;;;5042695;28;20037;-80
2022/09/16 03:34:50;;;;;;;1.38;0.70;;;15.80;95.00;;;;;;5033734;28;20126;-81
2022/09/16 03:37:18;;;;;;;1.83;0.70;;;15.80;95.40;;;;;;5058271;28;20028;-80
2022/09/16 03:39:52;;;;;;;2.33;0.80;;;15.80;95.50;;;;;;5042339;28;20028;-80
2022/09/16 03:42:19;;;;;;;1.23;0.60;;;15.70;95.30;;;;;;5052618;28;20491;-81
2022/09/16 03:44:44;;;;;;;1.45;0.70;;;15.70;95.60;;;;;;5065127;28;20039;-80
2022/09/16 03:47:10;;;;;;;1.60;0.83;;;15.60;95.70;;;;;;5076967;28;20496;-80
2022/09/16 03:49:37;;;;;;;1.67;1.00;;;15.60;95.70;;;;;;5069117;28;20031;-80
2022/09/16 03:52:07;;;;;;;2.10;1.00;;;15.70;95.80;;;;;;5070470;28;20291;-80
2022/09/16 03:54:34;;;;;;;1.60;0.65;;;15.60;95.80;;;;;;5055535;27;20032;-81
2022/09/16 03:57:00;;;;;;;2.10;0.67;;;15.60;95.80;;;;;;5078900;28;20588;-80
2022/09/16 03:59:27;;;;;;;1.52;0.80;;;15.60;95.80;;;;;;5066624;28;20028;-79
2022/09/16 04:01:53;;;;;;;1.73;0.63;;;15.60;95.80;;;;;;5065986;28;20613;-81
2022/09/16 04:04:18;;;;;;;2.67;0.60;;;15.60;95.90;;;;;;5039054;28;20016;-80
2022/09/16 04:06:44;;;;;;;1.65;0.60;;;15.60;96.00;;;;;;5060284;28;20020;-80
2022/09/16 04:09:11;;;;;;;2.10;0.70;;;15.60;96.00;;;;;;5046877;28;20486;-80
2022/09/16 04:11:38;;;;;;;1.23;0.70;;;15.60;96.10;;;;;;5058877;28;20618;-80
2022/09/16 04:14:04;;;;;;;2.33;0.70;;;15.60;96.10;;;;;;5068496;28;20085;-81
2022/09/16 04:16:30;;;;;;;1.25;0.70;;;15.60;96.20;;;;;;5070378;28;20111;-79
2022/09/16 04:18:56;;;;;;;2.33;0.80;;;15.60;96.30;;;;;;5065078;28;20632;-80
2022/09/16 04:21:22;;;;;;;1.77;0.60;;;15.60;96.40;;;;;;5056713;28;20032;-80
2022/09/16 04:23:48;;;;;;;0.98;0.60;;;15.60;96.40;;;;;;5076558;28;20741;-80
2022/09/16 04:26:15;;;;;;;2.08;0.60;;;15.60;96.80;;;;;;5055159;28;20194;-80
2022/09/16 04:28:41;;;;;;;2.03;0.50;;;15.60;96.50;;;;;;5051416;28;20047;-81
2022/09/16 04:31:11;;;;;;;1.00;0.50;;;15.60;96.60;;;;;;5057740;28;20032;-82
2022/09/16 04:33:37;;;;;;;0.68;0.50;;;15.60;96.60;;;;;;5043197;28;20441;-81
2022/09/16 04:36:05;;;;;;;0.65;0.45;;;15.60;96.70;;;;;;5065872;28;20028;-79
2022/09/16 04:38:31;;;;;;;0.85;0.50;;;15.70;96.70;;;;;;5050698;28;20075;-79
2022/09/16 04:41:13;;;;;;;1.30;0.50;;;15.60;96.70;;;;;;5063940;28;20657;-80
2022/09/16 04:43:39;;;;;;;1.38;0.50;;;15.70;96.20;;;;;;5055786;28;20242;-80
2022/09/16 04:46:05;;;;;;;0.60;0.50;;;15.70;96.70;;;;;;5065932;28;20103;-80
2022/09/16 04:48:32;;;;;;;2.05;0.70;;;15.60;96.70;;;;;;5052315;28;20304;-80
2022/09/16 04:51:06;;;;;;;0.80;0.50;;;15.60;96.70;;;;;;5073006;28;20112;-80
2022/09/16 04:53:33;;;;;;;0.68;0.45;;;15.60;96.50;;;;;;5070172;28;20238;-79
2022/09/16 04:56:19;;;;;;;0.75;0.60;;;15.60;96.70;;;;;;5078831;28;20492;-80
2022/09/16 04:58:51;;;;;;;0.98;0.50;;;15.70;96.20;;;;;;5050093;28;20598;-80
2022/09/16 05:01:28;;;;;;;1.13;0.50;;;15.60;96.50;;;;;;5040934;28;20013;-81
2022/09/16 05:03:57;;;;;;;0.50;0.40;;;15.60;96.40;;;;;;5058928;28;20027;-80
2022/09/16 05:06:25;;;;;;;2.25;0.52;;;15.60;96.70;;;;;;5073524;28;20035;-79
2022/09/16 05:08:52;;;;;;;0.60;0.50;;;15.60;96.70;;;;;;5023462;28;20113;-80
2022/09/16 05:11:21;;;;;;;1.20;0.50;;;15.60;96.80;;;;;;5064932;28;20527;-79
2022/09/16 05:13:46;;;;;;;1.40;0.52;;;15.60;96.80;;;;;;5056617;28;20031;-79
2022/09/16 05:16:14;;;;;;;0.73;0.50;;;15.60;96.90;;;;;;5025283;28;20754;-80
2022/09/16 05:18:41;;;;;;;0.40;0.40;;;15.50;96.80;;;;;;5066130;28;20020;-79
2022/09/16 05:21:11;;;;;;;1.80;0.50;;;15.50;96.90;;;;;;5062669;28;20033;-80
2022/09/16 05:23:37;;;;;;;1.10;0.47;;;15.50;96.90;;;;;;5058009;28;20024;-79
2022/09/16 05:26:09;;;;;;;1.63;0.50;;;15.50;97.00;;;;;;5068708;27;20085;-80
2022/09/16 05:28:35;;;;;;;1.63;0.40;;;15.40;96.80;;;;;;5060777;28;20636;-80
2022/09/16 05:31:20;;;;;;;2.08;0.50;;;15.50;97.10;;;;;;5067438;27;20252;-81
2022/09/16 05:33:53;;;;;;;0.82;0.43;;;15.40;96.80;;;;;;5065040;28;20036;-79
2022/09/16 05:36:19;;;;;;;1.13;0.50;;;15.50;97.00;;;;;;5055069;28;20025;-80
2022/09/16 05:38:45;;;;;;;1.73;0.50;;;15.40;97.30;;;;;;5055639;28;20030;-79
2022/09/16 05:41:11;;;;;;;2.00;0.50;;;15.50;97.30;;;;;;5051930;28;20028;-80
2022/09/16 05:43:37;;;;;;;1.25;0.50;;;15.50;97.40;;;;;;5058574;28;20036;-79
2022/09/16 05:46:04;;;;;;;1.13;0.50;;;15.40;97.40;;;;;;5047384;28;20016;-80
2022/09/16 05:48:31;;;;;;;1.55;0.50;;;15.50;97.40;;;;;;5043898;28;20044;-81
2022/09/16 05:51:02;;;;;;;1.42;0.50;;;15.50;97.40;;;;;;5071008;28;20055;-79
2022/09/16 05:53:29;;;;;;;0.80;0.60;;;15.50;97.40;;;;;;5059610;28;20260;-80
2022/09/16 05:56:04;;;;;;;1.95;0.50;;;15.40;97.60;;;;;;5031007;28;20028;-78
2022/09/16 05:58:31;;;;;;;1.63;0.45;;;15.50;97.70;;;;;;5051994;28;20217;-79
2022/09/16 06:01:01;;;;;;;1.40;0.50;;;15.50;97.70;;;;;;5062324;28;20112;-79
2022/09/16 06:03:27;;;;;;;2.17;0.50;;;15.50;97.60;;;;;;5039539;28;20168;-80
2022/09/16 06:06:03;;;;;;;1.80;0.60;;;15.40;97.70;;;;;;5051920;28;20031;-79
2022/09/16 06:08:30;;;;;;;0.70;0.65;;;15.50;97.40;;;;;;5066244;28;20043;-79
2022/09/16 06:10:59;;;;;;;1.48;0.50;;;15.40;97.70;;;;;;5060467;28;20039;-79
2022/09/16 06:13:24;;;;;;;1.80;0.50;;;15.40;97.90;;;;;;5063603;28;20658;-81
2022/09/16 06:15:53;;;;;;;1.70;0.57;;;15.40;97.90;;;;;;5064075;28;20031;-81
2022/09/16 06:18:20;;;;;;;0.95;0.50;;;15.40;98.00;;;;;;5051017;28;20213;-81
2022/09/16 06:20:46;;;;;;;1.75;0.60;;;15.40;98.10;;;;;;5059575;28;20026;-81
2022/09/16 06:23:12;;;;;;;0.95;0.60;;;15.40;98.20;;;;;;5054360;28;20024;-81
2022/09/16 06:25:38;;;;;;;1.17;0.50;;;15.40;98.20;;;;;;5043735;28;20383;-81
2022/09/16 06:28:04;;;;;;;1.48;0.45;;;15.40;98.20;;;;;;5052019;28;20463;-81
2022/09/16 06:30:30;;;;;;;1.23;0.50;;;15.40;98.30;;;;;;5060534;28;20030;-80
2022/09/16 06:32:55;;;;;;;1.67;0.70;;;15.40;98.40;;;;;;5041149;28;20603;-80
2022/09/16 06:35:21;;;;;;;0.63;0.45;;;15.40;98.40;;;;;;5058580;28;20436;-81
2022/09/16 06:37:47;;;;;;;1.13;0.47;;;15.50;98.50;;;;;;5051240;28;20115;-81
2022/09/16 06:40:12;;;;;;;1.08;0.52;;;15.50;98.50;;;;;;5041664;28;20231;-81
2022/09/16 06:42:38;;;;;;;1.03;0.57;;;15.50;98.70;;;;;;5043978;28;20517;-81
2022/09/16 06:45:05;;;;;;;0.77;0.60;;;15.50;98.70;;;;;;5031755;28;20530;-80
2022/09/16 06:47:34;;;;;;;1.10;0.60;;;15.50;98.80;;;;;;5023304;28;20207;-82
2022/09/16 06:50:00;;;;;;;0.63;0.50;;;15.60;98.80;;;;;;5048143;28;20067;-81
2022/09/16 06:52:26;;;;;;;2.13;0.73;;;15.60;98.80;;;;;;5065552;28;20482;-82
2022/09/16 06:54:53;;;;;;;2.20;0.70;;;15.60;98.80;;;;;;5061856;28;20282;-80
2022/09/16 06:57:19;;;;;;;1.55;0.60;;;15.60;98.80;;;;;;5045664;28;20321;-82
2022/09/16 06:59:45;;;;;;;2.10;0.80;;;15.60;98.80;;;;;;5057721;28;20432;-81
2022/09/16 07:02:11;;;;;;;2.30;0.60;;;15.60;98.80;;;;;;5030053;28;20537;-82
2022/09/16 07:04:37;;;;;;;1.02;0.70;;;15.60;98.70;;;;;;5065679;28;20021;-82
2022/09/16 07:07:03;;;;;;;2.00;0.60;;;15.70;98.70;;;;;;5059519;28;20477;-82
2022/09/16 07:09:29;;;;;;;1.73;0.70;;;15.60;98.70;;;;;;5052410;28;20028;-83
2022/09/16 07:11:56;;;;;;;1.70;0.60;;;15.60;98.70;;;;;;5073416;28;20121;-83
2022/09/16 07:14:22;;;;;;;0.95;0.60;;;15.60;98.70;;;;;;5049374;28;20016;-83
2022/09/16 07:16:47;;;;;;;1.17;0.60;;;15.60;98.70;;;;;;5035199;28;20054;-83
2022/09/16 07:19:13;;;;;;;2.97;0.77;;;15.60;98.90;;;;;;5047811;28;20885;-83
2022/09/16 07:21:40;;;;;;;2.73;0.60;;;15.60;99.10;;;;;;5071679;28;20059;-83
2022/09/16 07:24:06;;;;;;;1.23;0.50;;;15.60;99.60;;;;;;5060764;27;20380;-83
2022/09/16 07:26:34;;;;;;;1.00;0.57;;;15.70;99.40;;;;;;5074662;28;20016;-83
2022/09/16 07:29:01;;;;;;;1.88;0.60;;;15.70;99.50;;;;;;5038717;28;20137;-84
2022/09/16 07:31:30;;;;;;;1.10;0.67;;;15.80;99.90;;;;;;5062941;28;20026;-84
2022/09/16 07:33:57;;;;;;;1.92;0.68;;;15.80;99.90;;;;;;5045103;28;20032;-83
2022/09/16 07:36:26;;;;;;;1.55;0.80;;;15.90;99.90;;;;;;5066893;28;20024;-83
2022/09/16 07:38:53;;;;;;;1.05;0.60;;;15.90;99.90;;;;;;5033142;28;20111;-83
2022/09/16 07:41:22;;;;;;;1.05;0.60;;;16.00;99.90;;;;;;5085276;28;20021;-83
2022/09/16 07:43:49;;;;;;;2.23;0.70;;;16.10;99.90;;;;;;5036491;28;20043;-82
2022/09/16 07:46:16;;;;;;;1.98;0.80;;;16.20;99.90;;;;;;5061432;28;20617;-81
2022/09/16 07:48:44;;;;;;;1.00;0.60;;;16.30;99.90;;;;;;5045181;28;20040;-81
2022/09/16 07:51:15;;;;;;;2.63;1.00;;;16.40;99.90;;;;;;5054412;28;20126;-81
2022/09/16 07:53:41;;;;;;;2.30;0.90;;;16.40;99.90;;;;;;5065866;28;20234;-80
2022/09/16 07:56:11;;;;;;;2.93;1.13;;;16.40;99.70;;;;;;5051566;28;20386;-80
2022/09/16 07:58:39;;;;;;;1.70;0.80;;;16.40;99.40;;;;;;5060233;28;20038;-82
2022/09/16 08:01:06;;;;;;;2.05;1.00;;;16.40;99.30;;;;;;5037578;28;20266;-83
2022/09/16 08:03:34;;;;;;;2.28;0.80;;;16.40;99.20;;;;;;5053589;28;20060;-83
2022/09/16 08:06:02;;;;;;;2.75;0.88;;;16.30;99.00;;;;;;5035946;28;20029;-82
2022/09/16 08:08:28;;;;;;;1.40;0.70;;;16.30;99.10;;;;;;5047955;28;20031;-82
2022/09/16 08:10:58;;;;;;;2.65;0.82;;;16.30;99.30;;;;;;5061404;28;20124;-82
2022/09/16 08:13:25;;;;;;;1.67;0.77;;;16.20;99.20;;;;;;5066851;28;20048;-82
2022/09/16 08:15:52;;;;;;;1.80;0.88;;;16.20;99.60;;;;;;5037567;28;20667;-82
2022/09/16 08:18:18;;;;;;;1.67;0.80;;;16.20;99.80;;;;;;5071702;28;20097;-81
2022/09/16 08:20:44;;;;;;;1.20;0.90;;;16.30;99.90;;;;;;5057998;28;20044;-82
2022/09/16 08:23:09;;;;;;;1.57;0.80;;;16.30;99.90;;;;;;5070341;28;20025;-82
2022/09/16 08:25:35;;;;;;;2.47;0.73;;;16.30;99.90;;;;;;5055938;28;20504;-82
2022/09/16 08:28:02;;;;;;;1.90;0.80;;;16.40;99.90;;;;;;5057806;28;20035;-81
2022/09/16 08:30:28;;;;;;;1.52;0.80;;;16.40;99.90;;;;;;5051803;28;20039;-82
2022/09/16 08:32:58;;;;;;;3.10;0.70;;;16.50;99.90;;;;;;5076707;28;20403;-81
2022/09/16 08:35:24;;;;;;;2.13;0.70;;;16.60;99.90;;;;;;5051832;28;20212;-81
2022/09/16 08:37:50;;;;;;;1.40;0.70;;;16.70;99.90;;;;;;5049054;28;20450;-81
2022/09/16 08:40:22;;;;;;;2.08;0.95;;;16.80;99.90;;;;;;5071676;28;20024;-80
2022/09/16 08:43:06;;;;;;;1.27;0.77;;;16.90;99.90;;;;;;5085429;28;20152;-81
2022/09/16 08:46:01;;;;;;;0.82;0.63;;;16.90;99.40;;;;;;5053974;28;22394;-81
2022/09/16 08:48:38;;;;;;;1.40;0.70;;;17.00;99.10;;;;;;5063996;28;20040;-81
2022/09/16 08:51:07;;;;;;;1.17;0.70;;;17.00;99.60;;;;;;5070270;28;20029;-82
2022/09/16 08:53:46;;;;;;;2.03;0.80;;;16.90;99.90;;;;;;5052171;28;20240;-81
2022/09/16 08:56:15;;;;;;;1.27;0.60;;;16.90;99.50;;;;;;5047510;28;20024;-82
2022/09/16 08:58:44;;;;;;;2.33;0.60;;;16.90;99.90;;;;;;5069481;28;20123;-82
2022/09/16 09:01:33;;;;;;;1.60;0.63;;;17.00;99.80;;;;;;5067735;28;20024;-81
2022/09/16 09:03:59;;;;;;;2.00;0.75;;;16.90;99.60;;;;;;5067926;28;20097;-80
2022/09/16 09:06:50;;;;;;;2.10;0.60;;;16.90;99.90;;;;;;5050957;28;20051;-81
2022/09/16 09:09:35;;;;;;;1.42;0.68;;;16.90;99.50;;;;;;5053612;28;20023;-81
2022/09/16 09:12:23;;;;;;;2.10;0.70;;;17.00;99.90;;;;;;5054935;28;20569;-81
2022/09/16 09:15:06;;;;;;;1.63;0.60;;;17.00;99.30;;;;;;5060486;28;20016;-81
2022/09/16 09:17:41;;;;;;;2.70;0.75;;;17.00;99.90;;;;;;5035335;28;20665;-80
2022/09/16 09:20:30;;;;;;;1.30;0.68;;;17.20;99.90;;;;;;5044049;28;20031;-80
2022/09/16 09:23:25;;;;;;;1.27;0.70;;;17.60;99.90;;;;;;5068751;27;20035;-80
2022/09/16 09:26:15;;;;;;;2.70;0.80;;;18.20;99.90;;;;;;5060178;28;20028;-81
2022/09/16 09:29:03;;;;;;;1.63;0.70;;;18.70;99.90;;;;;;5047805;28;20036;-83
2022/09/16 09:31:31;;;;;;;1.60;0.60;;;18.90;99.90;;;;;;5044566;28;20176;-79
2022/09/16 09:34:31;;;;;;;0.98;0.60;;;19.20;99.90;;;;;;5082650;27;20081;-81
2022/09/16 09:37:31;;;;;;;1.25;0.60;;;19.30;99.90;;;;;;5051634;28;20047;-82
2022/09/16 09:40:15;;;;;;;1.73;0.60;;;19.50;99.90;;;;;;5042979;28;21243;-80
2022/09/16 09:43:00;;;;;;;1.47;0.60;;;19.70;99.90;;;;;;5054847;28;20032;-80
2022/09/16 09:45:30;;;;;;;1.98;0.65;;;19.80;99.90;;;;;;5055742;28;20023;-81
2022/09/16 09:47:56;;;;;;;1.45;0.68;;;19.80;99.90;;;;;;5053077;28;20052;-80
2022/09/16 09:50:33;;;;;;;2.07;0.60;;;19.90;99.90;;;;;;5060552;28;20029;-80
2022/09/16 09:53:12;;;;;;;2.20;0.50;;;19.90;99.90;;;;;;5056532;28;20025;-80
2022/09/16 09:55:40;;;;;;;1.60;0.70;;;19.90;99.60;;;;;;5048986;28;20028;-80
2022/09/16 09:58:14;;;;;;;2.65;0.70;;;20.00;99.90;;;;;;5047025;28;20689;-81
2022/09/16 10:00:40;;;;;;;1.88;0.60;;;20.10;99.90;;;;;;5077284;28;20376;-81
2022/09/16 10:03:15;;;;;;;0.93;0.53;;;20.30;99.90;;;;;;5055288;28;20036;-80
2022/09/16 10:05:42;;;;;;;2.38;0.50;;;20.50;99.90;;;;;;5058791;28;20029;-80
2022/09/16 10:08:23;;;;;;;1.23;0.63;;;20.70;99.90;;;;;;5081371;28;20057;-80
2022/09/16 10:10:55;;;;;;;2.35;0.60;;;20.90;99.90;;;;;;5054753;28;20027;-81
2022/09/16 10:13:22;;;;;;;2.80;0.60;;;21.00;99.90;;;;;;5058820;28;20508;-81
2022/09/16 10:15:49;;;;;;;2.58;0.60;;;21.10;99.90;;;;;;5059957;28;20097;-80
2022/09/16 10:18:28;;;;;;;2.67;1.00;;;21.00;98.10;;;;;;5073303;27;20016;-81
2022/09/16 10:21:04;;;;;;;2.50;1.15;;;20.80;95.20;;;;;;5052664;28;20264;-81
2022/09/16 10:23:31;;;;;;;1.83;0.95;;;20.60;94.90;;;;;;5078478;28;20012;-82
2022/09/16 10:26:03;;;;;;;2.40;0.93;;;20.40;95.80;;;;;;5054156;28;20531;-82
2022/09/16 10:28:29;;;;;;;1.40;1.00;;;20.00;95.20;;;;;;5060860;28;20032;-81
2022/09/16 10:30:57;;;;;;;2.05;1.33;;;20.00;97.60;;;;;;5058897;28;20047;-82
2022/09/16 10:33:36;;;;;;;1.75;1.00;;;19.90;99.90;;;;;;5038318;28;20114;-80
2022/09/16 10:36:07;;;;;;;1.03;0.80;;;20.10;99.90;;;;;;5075871;28;20214;-81
2022/09/16 10:38:47;;;;;;;1.88;0.70;;;20.10;99.90;;;;;;5069926;28;20371;-81
2022/09/16 10:41:24;;;;;;;2.00;0.80;;;20.30;99.00;;;;;;5042918;28;20043;-81
2022/09/16 10:43:52;;;;;;;1.63;0.70;;;20.30;98.60;;;;;;5049937;28;20338;-81
2022/09/16 10:46:19;;;;;;;1.95;0.57;;;20.30;99.60;;;;;;5064321;28;20476;-82
2022/09/16 10:48:46;;;;;;;0.50;0.50;;;20.40;99.60;;;;;;5041720;28;20036;-82
2022/09/16 10:51:26;;;;;;;1.00;0.50;;;20.40;99.20;;;;;;5062737;28;20516;-80
2022/09/16 10:53:58;;;;;;;2.38;0.52;;;20.30;96.90;;;;;;5035890;28;20028;-81
2022/09/16 10:56:28;;;;;;;1.40;0.50;;;20.30;97.80;;;;;;5043162;28;20086;-82
2022/09/16 10:59:23;;;;;;;1.25;0.55;;;20.20;97.50;;;;;;5054575;28;20020;-81
2022/09/16 11:02:11;;;;;;;2.00;0.60;;;20.10;95.20;;;;;;5020988;28;20055;-80
2022/09/16 11:04:50;;;;;;;1.33;0.55;;;20.00;96.60;;;;;;5041688;28;20077;-80
2022/09/16 11:07:42;;;;;;;1.38;0.55;;;20.10;99.30;;;;;;5074649;28;20073;-82
2022/09/16 11:10:32;;;;;;;1.75;0.57;;;20.20;99.90;;;;;;5055304;28;20441;-81
2022/09/16 11:13:23;;;;;;;1.55;0.60;;;20.60;99.90;;;;;;5044729;28;20232;-80
2022/09/16 11:16:02;;;;;;;0.90;0.40;;;20.90;99.90;;;;;;5045574;28;20030;-81
2022/09/16 11:18:44;;;;;;;1.27;0.50;;;21.20;99.90;;;;;;5055639;28;20066;-81
2022/09/16 11:21:29;;;;;;;1.33;0.52;;;21.40;99.90;;;;;;5069994;28;20024;-80
2022/09/16 11:24:25;;;;;;;1.25;0.55;;;21.60;99.50;;;;;;5059688;28;20849;-80
2022/09/16 11:27:20;;;;;;;0.75;0.50;;;21.70;97.60;;;;;;5038837;28;20031;-81
2022/09/16 11:29:52;;;;;;;0.53;0.50;;;21.80;97.50;;;;;;5072049;28;20458;-81
2022/09/16 11:32:29;;;;;;;2.00;0.60;;;22.10;99.70;;;;;;5058529;28;20047;-81
2022/09/16 11:35:12;;;;;;;1.13;0.60;;;22.20;99.90;;;;;;5063533;28;20695;-82
2022/09/16 11:37:46;;;;;;;1.80;0.52;;;22.40;98.90;;;;;;5042082;28;20031;-81
2022/09/16 11:40:44;;;;;;;0.88;0.60;;;22.60;97.60;;;;;;5075649;28;20020;-83
2022/09/16 11:43:37;;;;;;;0.70;0.60;;;22.50;95.30;;;;;;5067665;28;20040;-81
2022/09/16 11:46:28;;;;;;;0.65;0.40;;;22.50;94.90;;;;;;5068404;28;20297;-81
2022/09/16 11:49:12;;;;;;;1.52;0.50;;;22.30;93.80;;;;;;5081219;28;20168;-81
2022/09/16 11:51:47;;;;;;;1.42;0.50;;;22.10;94.00;;;;;;5060869;28;20020;-81
2022/09/16 11:54:21;;;;;;;0.85;0.50;;;21.90;94.90;;;;;;5080733;28;20039;-81
2022/09/16 11:56:51;;;;;;;1.40;0.60;;;21.80;95.40;;;;;;5056789;28;20017;-82
2022/09/16 11:59:27;;;;;;;2.35;0.60;;;21.80;98.10;;;;;;5040216;28;20016;-81
2022/09/16 12:02:21;;;;;;;1.00;0.60;;;22.00;99.20;;;;;;5069400;28;20227;-81
2022/09/16 12:04:56;;;;;;;1.27;0.50;;;22.40;98.40;;;;;;5063541;28;20481;-80
2022/09/16 12:07:40;;;;;;;0.75;0.52;;;22.70;98.40;;;;;;5068142;28;20028;-81
2022/09/16 12:10:20;;;;;;;1.43;0.60;;;22.80;98.50;;;;;;5076148;28;20077;-82
2022/09/16 12:12:57;;;;;;;2.20;0.60;;;22.90;97.80;;;;;;5083565;28;20592;-81
2022/09/16 12:15:30;;;;;;;1.00;0.40;;;22.80;94.80;;;;;;5052550;28;20027;-81
2022/09/16 12:18:00;;;;;;;1.75;0.50;;;22.70;93.60;;;;;;5086291;28;20053;-81
2022/09/16 12:20:35;;;;;;;0.90;0.50;;;22.50;93.30;;;;;;5071186;28;20319;-82
2022/09/16 12:23:13;;;;;;;1.43;0.50;;;22.20;92.10;;;;;;5060110;28;20032;-81
2022/09/16 12:26:01;;;;;;;0.90;0.40;;;21.90;90.80;;;;;;5068211;28;20118;-80
2022/09/16 12:28:58;;;;;;;0.38;0.32;;;21.60;91.30;;;;;;5061604;28;20660;-82
2022/09/16 12:31:30;;;;;;;2.42;0.50;;;21.20;90.00;;;;;;5052981;28;20036;-80
2022/09/16 12:34:15;;;;;;;1.40;0.50;;;20.80;91.00;;;;;;5062547;28;20145;-80
2022/09/16 12:36:46;;;;;;;0.90;0.50;;;20.50;91.60;;;;;;5066033;28;20085;-80
2022/09/16 12:39:12;;;;;;;2.15;0.77;;;20.20;91.70;;;;;;5064305;28;20026;-82
2022/09/16 12:42:14;;;;;;;2.05;0.50;;;19.90;92.10;;;;;;5079639;28;20029;-82
2022/09/16 12:45:01;;;;;;;0.40;0.40;;;19.60;91.00;;;;;;5067250;28;20028;-82
2022/09/16 12:48:05;;;;;;;0.82;0.60;;;19.30;91.70;;;;;;5090567;28;20055;-82
2022/09/16 12:50:44;;;;;;;1.63;0.50;;;19.10;91.80;;;;;;5078034;28;20103;-81
2022/09/16 12:53:48;;;;;;;1.90;0.50;;;18.90;93.10;;;;;;5071498;28;20055;-82
2022/09/16 12:56:39;;;;;;;1.38;0.60;;;18.70;93.10;;;;;;5079653;28;20032;-82
2022/09/16 12:59:13;;;;;;;2.30;0.70;;;18.70;94.60;;;;;;5084309;28;20390;-82
2022/09/16 13:01:44;;;;;;;1.95;0.68;;;18.60;94.90;;;;;;5065210;28;20031;-82
2022/09/16 13:04:20;;;;;;;1.40;0.60;;;18.60;96.20;;;;;;5074704;28;20021;-82
2022/09/16 13:06:49;;;;;;;1.90;0.70;;;18.70;97.20;;;;;;5067803;28;20071;-82
2022/09/16 13:09:22;;;;;;;1.17;0.65;;;19.00;99.90;;;;;;5069889;28;20025;-81
2022/09/16 13:11:58;;;;;;;1.38;0.60;;;19.40;99.90;;;;;;5060414;28;20019;-81
2022/09/16 13:14:42;;;;;;;0.95;0.52;;;19.90;99.90;;;;;;5085470;28;20043;-81
2022/09/16 13:17:09;;;;;;;1.83;0.70;;;20.40;99.90;;;;;;5062257;28;20047;-81
2022/09/16 13:19:41;;;;;;;1.52;0.70;;;20.90;99.90;;;;;;5063816;28;20034;-80
2022/09/16 13:22:28;;;;;;;1.70;0.55;;;21.50;99.90;;;;;;5058950;28;20030;-81